• Join FlightAware (Why Join?)
  • Login
  • US Flag 
07:36AM EDT


 

Airport Tracker/Info


-or-


 

Live Flight TrackerFlight Track Log ✈ SWA2975 ✈ 09-Aug-2013 ✈ KMDW - KALB

Flight Track Log - Related Links

Times and Time Zones

All times are in EDT time to prevent confusion due to time zone crossing. See the SWA2975 flight status page for this flight to view local times or setup timezone preferences in your user account.

Time Position Orientation Groundspeed Altitude Reporting Facility
EDT Latitude Longitude Course Direction KTS MPH feet Rate Location/Type
10:47PM 41.7990 -87.7710 323° Northwest 156 180 1,800  Level FlightAware
10:47PM 41.8040 -87.7740 336° Northwest 164 189 2,100 1,860 Climbing FlightAware
10:47PM 41.8110 -87.7760 348° North 180 207 2,300 1,320 Climbing FlightAware
10:47PM 41.8190 -87.7720 20° North 201 231 2,500 1,260 Climbing FlightAware
10:47PM 41.8250 -87.7650 41° Northeast 220 253 2,700 1,380 Climbing FlightAware
10:47PM 41.8270 -87.7600 62° Northeast 227 261 2,800 1,980 Climbing FlightAware
10:47PM 41.8300 -87.7500 68° East 236 272 3,100 2,280 Climbing FlightAware
10:47PM 41.8300 -87.7430 90° East 238 274 3,300 2,400 Climbing FlightAware
10:48PM 41.8250 -87.7140 103° East 259 298 4,100 1,920 Climbing FlightAware
10:48PM 41.8210 -87.6800 99° East 279 321 4,600 1,260 Climbing FlightAware
10:48PM 41.8190 -87.6560 96° East 283 326 4,800 660 Climbing FlightAware
10:49PM 41.8150 -87.6180 98° East 285 328 5,000 120 Climbing FlightAware
10:49PM 41.8110 -87.5800 98° East 284 327 4,900 -180 Descending FlightAware
10:49PM 41.8080 -87.5440 96° East 284 327 4,900  Level FlightAware
10:50PM 41.8060 -87.5230 97° East 284 327 4,900 960 Level FlightAware
10:50PM 41.8030 -87.4820 96° East 287 330 5,500 2,100 Climbing FlightAware
10:50PM 41.8010 -87.4590 97° East 291 335 6,200 3,180 Climbing FlightAware
10:51PM 41.7970 -87.4260 99° East 297 342 7,200 3,060 Climbing FlightAware
10:51PM 41.7940 -87.3900 96° East 304 350 8,200 3,300 Climbing FlightAware
10:51PM 41.7890 -87.3400 98° East 307 353 9,700 3,060 Climbing FlightAware
10:52PM 41.7830 -87.2830 98° East 319 367 11,100 1,980 Climbing FlightAware
10:52PM 41.7760 -87.2040 97° East 365 420 12,000 1,500 Climbing FlightAware
10:53PM 41.7670 -87.1130 98° East 405 466 13,000 1,740 Climbing FlightAware
10:54PM 41.7620 -87.0360 95° East 420 483 14,000 2,280 Climbing FlightAware
10:54PM 41.7630 -86.9430 89° East 429 494 15,500 2,340 Climbing FlightAware
10:55PM 41.7640 -86.8400 89° East 439 505 16,900 2,040 Climbing FlightAware
10:55PM 41.7650 -86.7490 89° East 448 516 18,000 1,980 Climbing FlightAware
10:56PM 41.7660 -86.6560 89° East 454 522 19,200 1,980 Climbing FlightAware
10:57PM 41.7670 -86.5450 89° East 465 535 20,400 1,860 Climbing FlightAware
10:57PM 41.7680 -86.4520 89° East 473 544 21,400 1,800 Climbing FlightAware
10:58PM 41.7700 -86.3240 89° East 480 552 22,700 1,740 Climbing FlightAware
10:58PM 41.7870 -86.2120 78° East 485 558 23,800 1,680 Climbing FlightAware
10:59PM 41.8020 -86.1250 77° East 491 565 24,600 1,560 Climbing FlightAware
11:00PM 41.8210 -86.0090 78° East 499 574 25,600 1,080 Climbing FlightAware
11:00PM 41.8390 -85.9020 77° East 513 590 26,000 780 Climbing FlightAware
11:01PM 41.8590 -85.7880 77° East 524 603 26,600 960 Climbing FlightAware
11:01PM 41.8760 -85.6850 77° East 534 615 27,100 1,020 Climbing FlightAware
11:02PM 41.8950 -85.5690 78° East 539 620 27,800 1,080 Climbing FlightAware
11:02PM 41.9130 -85.4600 77° East 542 624 28,400 1,200 Climbing FlightAware
11:03PM 41.9330 -85.3370 78° East 543 625 29,200 1,320 Climbing FlightAware
11:04PM 41.9480 -85.2200 80° East 540 621 30,000 1,320 Climbing FlightAware
11:04PM 41.9500 -85.1140 89° East 538 619 30,700 1,140 Climbing FlightAware
11:05PM 41.9500 -84.9930 90° East 540 621 31,300 1,020 Climbing FlightAware
11:05PM 41.9500 -84.8670 90° East 542 624 32,000 1,080 Climbing FlightAware
11:06PM 41.9490 -84.7600 91° East 543 625 32,600 1,020 Climbing FlightAware
11:07PM 41.9490 -84.6130 90° East 546 628 33,300 1,020 Climbing FlightAware
11:07PM 41.9480 -84.4910 91° East 546 628 34,000 1,080 Climbing FlightAware
11:08PM 41.9470 -84.3900 91° East 546 628 34,500 840 Climbing FlightAware
11:08PM 41.9450 -84.2490 91° East 549 632 35,000 360 Climbing FlightAware
11:09PM 41.9440 -84.1170 91° East 550 633 35,000  Level FlightAware
11:10PM 41.9430 -83.9950 91° East 550 633 35,000  Level FlightAware
11:10PM 41.9410 -83.8780 91° East 550 633 35,000  Level FlightAware
11:11PM 41.9390 -83.7580 91° East 550 633 35,000  Level FlightAware
11:11PM 41.9370 -83.6360 91° East 551 634 35,000  Level FlightAware
11:12PM 41.9440 -83.5270 85° East 554 638 35,000  Level FlightAware
11:13PM 41.9600 -83.4060 80° East 554 638 35,000  Level FlightAware
11:13PM 41.9760 -83.2810 80° East 553 636 35,000  Level FlightAware
11:14PM 41.9910 -83.1620 80° East 553 636 35,000  Level FlightAware
11:14PM 42.0030 -83.0530 82° East 552 635 35,000  Level FlightAware
11:15PM 42.0180 -82.9310 81° East 553 636 35,000 60 Level FlightAware
11:16PM 42.0330 -82.8080 81° East 556 640 35,100 660 Climbing FlightAware
11:16PM 42.0460 -82.6940 81° East 552 635 35,800 1,140 Climbing FlightAware
11:17PM 42.0600 -82.5800 81° East 549 632 36,400 960 Climbing FlightAware
11:17PM 42.0740 -82.4550 81° East 547 629 37,000 480 Climbing FlightAware
11:18PM 42.0870 -82.3440 81° East 550 633 37,000  Level FlightAware
11:18PM 42.1010 -82.2220 81° East 551 634 37,000  Level FlightAware
11:19PM 42.1140 -82.1130 81° East 552 635 37,000  Level FlightAware
11:20PM 42.1290 -81.9800 81° East 551 634 37,000  Level FlightAware
11:20PM 42.1400 -81.8780 82° East 552 635 37,000  Level FlightAware
11:21PM 42.1540 -81.7590 81° East 551 634 37,000  Level FlightAware
11:21PM 42.1690 -81.6200 82° East 551 634 37,000  Level FlightAware
11:22PM 42.1820 -81.5000 82° East 550 633 37,000  Level FlightAware
11:23PM 42.1930 -81.3910 82° East 549 632 37,000  Level FlightAware
11:23PM 42.2060 -81.2680 82° East 549 632 37,000  Level FlightAware
11:24PM 42.2190 -81.1450 82° East 548 631 37,000  Level FlightAware
11:24PM 42.2320 -81.0220 82° East 548 631 37,000  Level FlightAware
11:25PM 42.2430 -80.9140 82° East 548 631 37,000  Level FlightAware
11:25PM 42.2560 -80.7920 82° East 547 629 37,000  Level FlightAware
11:26PM 42.2670 -80.6760 83° East 546 628 37,000  Level FlightAware
11:27PM 42.2790 -80.5620 82° East 546 628 37,000  Level FlightAware
11:27PM 42.2910 -80.4430 82° East 547 629 37,000  Level FlightAware
11:28PM 42.3030 -80.3200 82° East 547 629 37,000  Level FlightAware
11:28PM 42.3140 -80.1980 83° East 547 629 37,000  Level FlightAware
11:29PM 42.3220 -80.1170 82° East 548 631 37,000  Level FlightAware
11:29PM 42.3340 -79.9910 83° East 548 631 37,000  Level FlightAware
11:30PM 42.3470 -79.8590 82° East 549 632 37,000  Level FlightAware
11:31PM 42.3590 -79.7240 83° East 550 633 37,000  Level FlightAware
11:31PM 42.3680 -79.6220 83° East 551 634 37,000  Level FlightAware
11:32PM 42.3800 -79.4890 83° East 551 634 37,000  Level FlightAware
11:33PM 42.3910 -79.3620 83° East 551 634 37,000  Level FlightAware
11:33PM 42.4010 -79.2510 83° East 552 635 37,000  Level FlightAware
11:34PM 42.4120 -79.1280 83° East 552 635 37,000  Level FlightAware
11:34PM 42.4220 -79.0070 84° East 552 635 37,000  Level FlightAware
11:35PM 42.4330 -78.8900 83° East 552 635 37,000  Level FlightAware
11:35PM 42.4430 -78.7660 84° East 554 638 37,000  Level FlightAware
11:36PM 42.4530 -78.6420 84° East 554 638 37,000  Level FlightAware
11:37PM 42.4620 -78.5330 84° East 554 638 37,000  Level FlightAware
11:37PM 42.4730 -78.4020 83° East 554 638 37,000 -360 Level FlightAware
11:38PM 42.4830 -78.2750 84° East 555 639 36,600 -840 Descending FlightAware
11:38PM 42.4910 -78.1660 84° East 556 640 36,100 -1,020 Descending FlightAware
11:39PM 42.5010 -78.0460 84° East 558 642 35,500 -960 Descending FlightAware
11:40PM 42.5100 -77.9220 84° East 560 644 35,000 -1,020 Descending FlightAware
11:40PM 42.5180 -77.8100 84° East 562 647 34,400 -1,080 Descending FlightAware
11:41PM 42.5280 -77.6790 84° East 559 643 33,800 -960 Descending FlightAware
11:41PM 42.5370 -77.5590 84° East 555 639 33,300 -960 Descending FlightAware
11:42PM 42.5460 -77.4350 84° East 559 643 32,700 -1,020 Descending FlightAware
11:42PM 42.5540 -77.3200 85° East 560 644 32,200 -960 Descending FlightAware
11:43PM 42.5620 -77.2040 85° East 560 644 31,700 -960 Descending FlightAware
11:44PM 42.5710 -77.0700 85° East 558 642 31,100 -1,020 Descending FlightAware
11:44PM 42.5800 -76.9470 84° East 552 635 30,500 -1,140 Descending FlightAware
11:45PM 42.5880 -76.8200 85° East 546 628 29,800 -1,080 Descending FlightAware
11:45PM 42.5950 -76.7120 85° East 543 625 29,300 -720 Descending FlightAware
11:46PM 42.6030 -76.5860 85° East 538 619 29,000 -300 Descending FlightAware
11:47PM 42.6110 -76.4670 85° East 536 617 29,000  Level FlightAware
11:47PM 42.6180 -76.3580 85° East 537 618 29,000  Level FlightAware
11:48PM 42.6250 -76.2370 85° East 537 618 29,000  Level FlightAware
11:48PM 42.6320 -76.1170 85° East 535 616 29,000 -1,020 Level FlightAware
11:49PM 42.6400 -75.9960 85° East 537 618 27,800 -2,520 Descending FlightAware
11:49PM 42.6460 -75.8820 86° East 535 616 26,100 -2,940 Descending FlightAware
11:50PM 42.6530 -75.7690 85° East 523 602 24,500 -2,760 Descending FlightAware
11:51PM 42.6590 -75.6480 86° East 513 590 22,800 -2,700 Descending FlightAware
11:51PM 42.6650 -75.5460 85° East 500 575 21,400 -2,460 Descending FlightAware
11:52PM 42.6710 -75.4350 86° East 486 559 20,000 -2,280 Descending FlightAware
11:52PM 42.6770 -75.3270 86° East 473 544 18,700 -2,280 Descending FlightAware
11:53PM 42.6820 -75.2270 86° East 460 529 17,400 -2,340 Descending FlightAware
11:54PM 42.6870 -75.1320 86° East 449 517 16,100 -2,340 Descending FlightAware
11:54PM 42.6920 -75.0370 86° East 437 503 14,800 -2,220 Descending FlightAware
11:55PM 42.6970 -74.9440 86° East 424 488 13,600 -2,100 Descending FlightAware
11:55PM 42.7010 -74.8490 87° East 416 479 12,300 -1,080 Descending FlightAware
11:56PM 42.7050 -74.7670 86° East 416 479 12,300  Level FlightAware
11:56PM 42.7100 -74.6870 85° East 416 479 12,300  Level FlightAware
11:57PM 42.7140 -74.6030 86° East 416 479 12,300 -1,380 Level FlightAware
11:58PM 42.7011 -74.4658 86° East 322 371 10,000 -1,680 Descending Boston Center
11:59PM 42.6722 -74.3292 106° East 314 361 8,500 -1,440 Descending Boston Center
12:00AM 42.6531 -74.2383 106° East 311 358 7,200 -1,380 Descending Boston Center
12:01AM 42.6275 -74.1247 107° East 306 352 6,100 -1,260 Descending Boston Center
12:02AM 42.6042 -74.0197 107° East 306 352 4,700 -1,140 Descending Boston Center
12:03AM 42.5825 -73.9119 105° East 306 352 3,900 -900 Descending Boston Center
12:04AM 42.5692 -73.8158 101° East 269 310 3,000 -600 Descending Boston Center
12:05AM 42.6131 -73.8000 15° North 164 189 2,700 -360 Descending Boston Center
12:06AM 42.6592 -73.7811 17° North 146 168 2,300 -900 Descending Boston Center
12:07AM 42.7111 -73.8078 339° North 131 151 800 -1,440 Descending Boston Center
12:11AM 42.7333 -73.8000 20° North  Level FlightAware Approximate
12:18AM 42.7491 -73.8020 20° North  Level Estimated